sensor_id;sensor_type;location;lat;lon;timestamp;pressure;altitude;pressure_sealevel;temperature;humidity
68628;BME280;55611;48.602;9.490;2023-03-12T00:02:09;96520;;;3.1;55
68628;BME280;55611;48.602;9.490;2023-03-12T00:04:40;96510;;;3;55
68628;BME280;55611;48.602;9.490;2023-03-12T00:07:10;96520;;;2.9;55
68628;BME280;55611;48.602;9.490;2023-03-12T00:09:41;96520;;;2.9;55
68628;BME280;55611;48.602;9.490;2023-03-12T00:12:11;96520;;;2.9;55
68628;BME280;55611;48.602;9.490;2023-03-12T00:14:42;96520;;;2.8;55
68628;BME280;55611;48.602;9.490;2023-03-12T00:17:12;96530;;;2.8;55
68628;BME280;55611;48.602;9.490;2023-03-12T00:19:43;96530;;;2.7;55
68628;BME280;55611;48.602;9.490;2023-03-12T00:22:13;96530;;;2.7;55
68628;BME280;55611;48.602;9.490;2023-03-12T00:24:44;96520;;;2.5;55.5
68628;BME280;55611;48.602;9.490;2023-03-12T00:27:14;96520;;;2.5;55.5
68628;BME280;55611;48.602;9.490;2023-03-12T00:29:45;96530;;;2.5;55.5
68628;BME280;55611;48.602;9.490;2023-03-12T00:32:15;96520;;;2.5;55.5
68628;BME280;55611;48.602;9.490;2023-03-12T00:34:50;96530;;;2.5;55.5
68628;BME280;55611;48.602;9.490;2023-03-12T00:37:16;96530;;;2.5;55.5
68628;BME280;55611;48.602;9.490;2023-03-12T00:39:47;96520;;;2.5;55.5
68628;BME280;55611;48.602;9.490;2023-03-12T00:42:18;96520;;;2.5;55.5
68628;BME280;55611;48.602;9.490;2023-03-12T00:44:48;96520;;;2.6;55.5
68628;BME280;55611;48.602;9.490;2023-03-12T00:47:18;96520;;;2.6;55.5
68628;BME280;55611;48.602;9.490;2023-03-12T00:49:49;96520;;;2.5;55.5
68628;BME280;55611;48.602;9.490;2023-03-12T00:52:19;96520;;;2.5;55.5
68628;BME280;55611;48.602;9.490;2023-03-12T00:54:50;96520;;;2.5;55.5
68628;BME280;55611;48.602;9.490;2023-03-12T00:57:21;96510;;;2.6;55.5
68628;BME280;55611;48.602;9.490;2023-03-12T00:59:51;96520;;;2.6;55.5
68628;BME280;55611;48.602;9.490;2023-03-12T01:02:22;96520;;;2.6;55.5
68628;BME280;55611;48.602;9.490;2023-03-12T01:04:52;96520;;;2.6;55.5
68628;BME280;55611;48.602;9.490;2023-03-12T01:07:23;96520;;;2.5;55.5
68628;BME280;55611;48.602;9.490;2023-03-12T01:09:54;96520;;;2.5;55.5
68628;BME280;55611;48.602;9.490;2023-03-12T01:12:24;96510;;;2.4;55.5
68628;BME280;55611;48.602;9.490;2023-03-12T01:14:54;96510;;;2.3;55.5
68628;BME280;55611;48.602;9.490;2023-03-12T01:17:25;96510;;;2.4;55.5
68628;BME280;55611;48.602;9.490;2023-03-12T01:19:55;96510;;;2.4;55.5
68628;BME280;55611;48.602;9.490;2023-03-12T01:22:26;96510;;;2.4;55.5
68628;BME280;55611;48.602;9.490;2023-03-12T01:24:56;96510;;;2.4;55.5
68628;BME280;55611;48.602;9.490;2023-03-12T01:27:27;96510;;;2.4;55.5
68628;BME280;55611;48.602;9.490;2023-03-12T01:29:57;96510;;;2.4;55.5
68628;BME280;55611;48.602;9.490;2023-03-12T01:32:28;96510;;;2.5;56
68628;BME280;55611;48.602;9.490;2023-03-12T01:34:58;96510;;;2.5;56
68628;BME280;55611;48.602;9.490;2023-03-12T01:37:30;96510;;;2.7;56
68628;BME280;55611;48.602;9.490;2023-03-12T01:39:59;96520;;;2.8;56
68628;BME280;55611;48.602;9.490;2023-03-12T01:42:30;96520;;;2.7;56
68628;BME280;55611;48.602;9.490;2023-03-12T01:45:01;96520;;;2.8;56
68628;BME280;55611;48.602;9.490;2023-03-12T01:47:31;96530;;;2.8;56
68628;BME280;55611;48.602;9.490;2023-03-12T01:50:01;96520;;;2.9;56
68628;BME280;55611;48.602;9.490;2023-03-12T01:52:32;96520;;;3;56
68628;BME280;55611;48.602;9.490;2023-03-12T01:55:07;96520;;;3.1;56
68628;BME280;55611;48.602;9.490;2023-03-12T01:57:34;96530;;;3.2;56
68628;BME280;55611;48.602;9.490;2023-03-12T02:00:07;96520;;;3.3;56
68628;BME280;55611;48.602;9.490;2023-03-12T02:02:34;96520;;;3.4;56
68628;BME280;55611;48.602;9.490;2023-03-12T02:05:08;96520;;;3.4;56
68628;BME280;55611;48.602;9.490;2023-03-12T02:07:35;96520;;;3.4;56
68628;BME280;55611;48.602;9.490;2023-03-12T02:10:05;96520;;;3.5;56
68628;BME280;55611;48.602;9.490;2023-03-12T02:12:36;96520;;;3.5;56
68628;BME280;55611;48.602;9.490;2023-03-12T02:15:07;96520;;;3.5;56
68628;BME280;55611;48.602;9.490;2023-03-12T02:17:37;96520;;;3.6;56
68628;BME280;55611;48.602;9.490;2023-03-12T02:20:11;96520;;;3.6;56
68628;BME280;55611;48.602;9.490;2023-03-12T02:22:39;96520;;;3.7;56
68628;BME280;55611;48.602;9.490;2023-03-12T02:25:15;96520;;;3.7;56
68628;BME280;55611;48.602;9.490;2023-03-12T02:27:39;96520;;;3.7;56
68628;BME280;55611;48.602;9.490;2023-03-12T02:30:10;96520;;;3.7;56
68628;BME280;55611;48.602;9.490;2023-03-12T02:32:40;96520;;;3.6;56
68628;BME280;55611;48.602;9.490;2023-03-12T02:35:12;96520;;;3.5;56
68628;BME280;55611;48.602;9.490;2023-03-12T02:37:46;96520;;;3.5;56
68628;BME280;55611;48.602;9.490;2023-03-12T02:40:12;96520;;;3.5;56.5
68628;BME280;55611;48.602;9.490;2023-03-12T02:45:13;96510;;;3.5;56.5
68628;BME280;55611;48.602;9.490;2023-03-12T02:47:43;96520;;;3.4;56.5
68628;BME280;55611;48.602;9.490;2023-03-12T02:50:14;96520;;;3.5;56.5
68628;BME280;55611;48.602;9.490;2023-03-12T02:52:44;96520;;;3.5;56.5
68628;BME280;55611;48.602;9.490;2023-03-12T02:55:15;96510;;;3.5;56.5
68628;BME280;55611;48.602;9.490;2023-03-12T02:57:45;96510;;;3.5;56.5
68628;BME280;55611;48.602;9.490;2023-03-12T03:00:16;96510;;;3.5;56.5
68628;BME280;55611;48.602;9.490;2023-03-12T03:02:46;96520;;;3.5;56.5
68628;BME280;55611;48.602;9.490;2023-03-12T03:05:17;96510;;;3.6;56.5
68628;BME280;55611;48.602;9.490;2023-03-12T03:07:47;96520;;;3.6;56.5
68628;BME280;55611;48.602;9.490;2023-03-12T03:10:18;96520;;;3.6;56.5
68628;BME280;55611;48.602;9.490;2023-03-12T03:12:48;96510;;;3.7;56.5
68628;BME280;55611;48.602;9.490;2023-03-12T03:15:19;96510;;;3.7;56.5
68628;BME280;55611;48.602;9.490;2023-03-12T03:17:49;96510;;;3.7;56.5
68628;BME280;55611;48.602;9.490;2023-03-12T03:20:20;96510;;;3.7;56.5
68628;BME280;55611;48.602;9.490;2023-03-12T03:22:50;96510;;;3.6;56.5
68628;BME280;55611;48.602;9.490;2023-03-12T03:25:21;96510;;;3.7;56.5
68628;BME280;55611;48.602;9.490;2023-03-12T03:27:51;96510;;;3.7;56
68628;BME280;55611;48.602;9.490;2023-03-12T03:30:22;96510;;;3.6;56
68628;BME280;55611;48.602;9.490;2023-03-12T03:32:52;96510;;;3.6;56
68628;BME280;55611;48.602;9.490;2023-03-12T03:35:23;96500;;;3.6;56
68628;BME280;55611;48.602;9.490;2023-03-12T03:37:54;96500;;;3.6;56
68628;BME280;55611;48.602;9.490;2023-03-12T03:40:24;96500;;;3.6;56
68628;BME280;55611;48.602;9.490;2023-03-12T03:42:54;96490;;;3.5;56
68628;BME280;55611;48.602;9.490;2023-03-12T03:45:25;96490;;;3.5;56
68628;BME280;55611;48.602;9.490;2023-03-12T03:47:56;96480;;;3.5;56
68628;BME280;55611;48.602;9.490;2023-03-12T03:50:26;96480;;;3.5;56.5
68628;BME280;55611;48.602;9.490;2023-03-12T03:52:57;96490;;;3.6;56.5
68628;BME280;55611;48.602;9.490;2023-03-12T03:55:27;96480;;;3.6;56.5
68628;BME280;55611;48.602;9.490;2023-03-12T03:57:58;96480;;;3.6;56.5
68628;BME280;55611;48.602;9.490;2023-03-12T04:00:28;96480;;;3.7;56.5
68628;BME280;55611;48.602;9.490;2023-03-12T04:02:59;96470;;;3.7;56.5
68628;BME280;55611;48.602;9.490;2023-03-12T04:05:30;96480;;;3.7;56.5
68628;BME280;55611;48.602;9.490;2023-03-12T04:08:00;96470;;;3.8;56.5
68628;BME280;55611;48.602;9.490;2023-03-12T04:10:30;96480;;;3.8;56.5
68628;BME280;55611;48.602;9.490;2023-03-12T04:13:01;96490;;;3.9;56.5
68628;BME280;55611;48.602;9.490;2023-03-12T04:15:31;96490;;;3.9;56.5
68628;BME280;55611;48.602;9.490;2023-03-12T04:18:02;96490;;;3.9;56.5
68628;BME280;55611;48.602;9.490;2023-03-12T04:20:32;96480;;;3.9;56.5
68628;BME280;55611;48.602;9.490;2023-03-12T04:23:03;96480;;;3.9;56.5
68628;BME280;55611;48.602;9.490;2023-03-12T04:25:33;96480;;;3.9;56.5
68628;BME280;55611;48.602;9.490;2023-03-12T04:28:04;96480;;;4;56.5
68628;BME280;55611;48.602;9.490;2023-03-12T04:30:34;96470;;;4;56.5
68628;BME280;55611;48.602;9.490;2023-03-12T04:33:05;96460;;;4;56.5
68628;BME280;55611;48.602;9.490;2023-03-12T04:35:35;96460;;;4.1;56.5
68628;BME280;55611;48.602;9.490;2023-03-12T04:38:06;96460;;;4.1;56.5
68628;BME280;55611;48.602;9.490;2023-03-12T04:40:36;96470;;;4;56.5
68628;BME280;55611;48.602;9.490;2023-03-12T04:43:07;96470;;;4.1;56.5
68628;BME280;55611;48.602;9.490;2023-03-12T04:45:37;96460;;;4.1;57
68628;BME280;55611;48.602;9.490;2023-03-12T04:48:08;96460;;;4.1;57
68628;BME280;55611;48.602;9.490;2023-03-12T04:50:38;96460;;;4.1;57
68628;BME280;55611;48.602;9.490;2023-03-12T04:53:09;96460;;;4.2;56.5
68628;BME280;55611;48.602;9.490;2023-03-12T04:55:39;96460;;;4.2;56.5
68628;BME280;55611;48.602;9.490;2023-03-12T04:58:10;96460;;;4.2;57
68628;BME280;55611;48.602;9.490;2023-03-12T05:00:40;96460;;;4.5;57
68628;BME280;55611;48.602;9.490;2023-03-12T05:03:11;96460;;;4.3;57
68628;BME280;55611;48.602;9.490;2023-03-12T05:05:41;96470;;;4.3;57
68628;BME280;55611;48.602;9.490;2023-03-12T05:08:12;96470;;;4.4;57
68628;BME280;55611;48.602;9.490;2023-03-12T05:10:43;96480;;;4.8;57
68628;BME280;55611;48.602;9.490;2023-03-12T05:13:14;96460;;;4.9;57
68628;BME280;55611;48.602;9.490;2023-03-12T05:15:44;96460;;;5.1;57
68628;BME280;55611;48.602;9.490;2023-03-12T05:20:45;96460;;;5.4;57
68628;BME280;55611;48.602;9.490;2023-03-12T05:23:15;96460;;;5.6;57
68628;BME280;55611;48.602;9.490;2023-03-12T05:25:46;96460;;;5.7;57
68628;BME280;55611;48.602;9.490;2023-03-12T05:28:16;96460;;;5.8;57
68628;BME280;55611;48.602;9.490;2023-03-12T05:30:47;96460;;;5.9;57
68628;BME280;55611;48.602;9.490;2023-03-12T05:33:17;96460;;;6;57
68628;BME280;55611;48.602;9.490;2023-03-12T05:35:48;96460;;;6.1;57
68628;BME280;55611;48.602;9.490;2023-03-12T05:38:18;96460;;;6.1;57
68628;BME280;55611;48.602;9.490;2023-03-12T05:40:51;96460;;;6.2;57
68628;BME280;55611;48.602;9.490;2023-03-12T05:43:19;96450;;;6.2;57
68628;BME280;55611;48.602;9.490;2023-03-12T05:45:50;96450;;;6.3;57
68628;BME280;55611;48.602;9.490;2023-03-12T05:50:51;96450;;;6.2;57
68628;BME280;55611;48.602;9.490;2023-03-12T05:53:21;96450;;;6.2;57
68628;BME280;55611;48.602;9.490;2023-03-12T05:55:52;96460;;;6.1;57
68628;BME280;55611;48.602;9.490;2023-03-12T05:58:22;96450;;;6.1;57
68628;BME280;55611;48.602;9.490;2023-03-12T06:00:53;96460;;;6.1;57
68628;BME280;55611;48.602;9.490;2023-03-12T06:03:23;96470;;;6.1;57
68628;BME280;55611;48.602;9.490;2023-03-12T06:05:54;96470;;;6.1;57
68628;BME280;55611;48.602;9.490;2023-03-12T06:08:24;96470;;;6.1;57
68628;BME280;55611;48.602;9.490;2023-03-12T06:13:25;96470;;;6;57
68628;BME280;55611;48.602;9.490;2023-03-12T06:16:27;96470;;;6;57
68628;BME280;55611;48.602;9.490;2023-03-12T06:18:26;96480;;;6;57
68628;BME280;55611;48.602;9.490;2023-03-12T06:21:29;96470;;;6;57
68628;BME280;55611;48.602;9.490;2023-03-12T06:23:27;96480;;;6;57
68628;BME280;55611;48.602;9.490;2023-03-12T06:25:58;96480;;;6;57
68628;BME280;55611;48.602;9.490;2023-03-12T06:28:28;96470;;;6;57
68628;BME280;55611;48.602;9.490;2023-03-12T06:30:59;96470;;;6.1;57
68628;BME280;55611;48.602;9.490;2023-03-12T06:36:01;96470;;;6.2;57
68628;BME280;55611;48.602;9.490;2023-03-12T06:38:31;96470;;;6.2;57
68628;BME280;55611;48.602;9.490;2023-03-12T06:41:03;96470;;;6.2;57
68628;BME280;55611;48.602;9.490;2023-03-12T06:43:32;96470;;;6.3;56.5
68628;BME280;55611;48.602;9.490;2023-03-12T06:46:03;96470;;;6.3;56.5
68628;BME280;55611;48.602;9.490;2023-03-12T06:48:33;96470;;;6.3;57
68628;BME280;55611;48.602;9.490;2023-03-12T06:51:03;96480;;;6.4;57
68628;BME280;55611;48.602;9.490;2023-03-12T06:53:34;96480;;;6.4;57
68628;BME280;55611;48.602;9.490;2023-03-12T06:56:04;96480;;;6.5;57
68628;BME280;55611;48.602;9.490;2023-03-12T06:58:35;96480;;;6.5;57
68628;BME280;55611;48.602;9.490;2023-03-12T07:01:05;96480;;;6.6;57
68628;BME280;55611;48.602;9.490;2023-03-12T07:03:36;96480;;;6.7;57
68628;BME280;55611;48.602;9.490;2023-03-12T07:06:11;96480;;;6.7;57
68628;BME280;55611;48.602;9.490;2023-03-12T07:08:37;96480;;;6.8;57
68628;BME280;55611;48.602;9.490;2023-03-12T07:11:07;96480;;;6.9;57
68628;BME280;55611;48.602;9.490;2023-03-12T07:13:38;96480;;;6.9;57
68628;BME280;55611;48.602;9.490;2023-03-12T07:16:09;96480;;;6.9;57
68628;BME280;55611;48.602;9.490;2023-03-12T07:18:39;96470;;;6.8;57
68628;BME280;55611;48.602;9.490;2023-03-12T07:21:09;96470;;;6.9;57
68628;BME280;55611;48.602;9.490;2023-03-12T07:23:40;96470;;;7;57
68628;BME280;55611;48.602;9.490;2023-03-12T07:26:10;96460;;;7.1;57
68628;BME280;55611;48.602;9.490;2023-03-12T07:28:41;96460;;;7.2;57
68628;BME280;55611;48.602;9.490;2023-03-12T07:31:12;96450;;;7.3;57
68628;BME280;55611;48.602;9.490;2023-03-12T07:33:42;96460;;;7.3;57
68628;BME280;55611;48.602;9.490;2023-03-12T07:36:12;96470;;;7.4;57
68628;BME280;55611;48.602;9.490;2023-03-12T07:38:43;96460;;;7.4;57
68628;BME280;55611;48.602;9.490;2023-03-12T07:41:14;96470;;;7.5;57
68628;BME280;55611;48.602;9.490;2023-03-12T07:43:44;96480;;;7.5;57
68628;BME280;55611;48.602;9.490;2023-03-12T07:46:14;96480;;;7.6;57
68628;BME280;55611;48.602;9.490;2023-03-12T07:48:45;96470;;;7.7;57
68628;BME280;55611;48.602;9.490;2023-03-12T07:51:15;96470;;;7.6;57
68628;BME280;55611;48.602;9.490;2023-03-12T07:53:46;96470;;;7.6;57
68628;BME280;55611;48.602;9.490;2023-03-12T07:56:16;96460;;;7.6;57
68628;BME280;55611;48.602;9.490;2023-03-12T07:58:47;96470;;;7.7;57.5
68628;BME280;55611;48.602;9.490;2023-03-12T08:01:18;96460;;;7.8;57.5
68628;BME280;55611;48.602;9.490;2023-03-12T08:03:48;96460;;;7.9;57.5
68628;BME280;55611;48.602;9.490;2023-03-12T08:06:19;96450;;;7.9;57.5
68628;BME280;55611;48.602;9.490;2023-03-12T08:08:49;96460;;;8.1;57.5
68628;BME280;55611;48.602;9.490;2023-03-12T08:13:50;96450;;;8.4;57.5
68628;BME280;55611;48.602;9.490;2023-03-12T08:16:21;96460;;;8.6;57
68628;BME280;55611;48.602;9.490;2023-03-12T08:18:51;96450;;;8.7;57.5
68628;BME280;55611;48.602;9.490;2023-03-12T08:21:22;96450;;;9;57.5
68628;BME280;55611;48.602;9.490;2023-03-12T08:23:52;96460;;;9;57.5
68628;BME280;55611;48.602;9.490;2023-03-12T08:26:23;96460;;;9.1;57.5
68628;BME280;55611;48.602;9.490;2023-03-12T08:28:53;96470;;;9.4;57.5
68628;BME280;55611;48.602;9.490;2023-03-12T08:31:24;96470;;;9.7;57.5
68628;BME280;55611;48.602;9.490;2023-03-12T08:33:54;96470;;;9.9;57.5
68628;BME280;55611;48.602;9.490;2023-03-12T08:36:25;96470;;;10;57.5
68628;BME280;55611;48.602;9.490;2023-03-12T08:38:55;96460;;;10.1;57.5
68628;BME280;55611;48.602;9.490;2023-03-12T08:41:26;96460;;;10.1;57
68628;BME280;55611;48.602;9.490;2023-03-12T08:43:56;96470;;;10.1;57.5
68628;BME280;55611;48.602;9.490;2023-03-12T08:46:27;96470;;;10.1;57.5
68628;BME280;55611;48.602;9.490;2023-03-12T08:48:57;96470;;;10.1;57.5
68628;BME280;55611;48.602;9.490;2023-03-12T08:51:28;96470;;;10.2;57.5
68628;BME280;55611;48.602;9.490;2023-03-12T08:53:58;96470;;;10.2;57.5
68628;BME280;55611;48.602;9.490;2023-03-12T08:56:29;96470;;;10.2;57
68628;BME280;55611;48.602;9.490;2023-03-12T08:58:59;96470;;;10.1;57
68628;BME280;55611;48.602;9.490;2023-03-12T09:01:30;96460;;;10.1;57.5
68628;BME280;55611;48.602;9.490;2023-03-12T09:04:01;96470;;;10.1;57.5
68628;BME280;55611;48.602;9.490;2023-03-12T09:06:31;96470;;;10.1;57.5
68628;BME280;55611;48.602;9.490;2023-03-12T09:09:01;96470;;;10.1;57.5
68628;BME280;55611;48.602;9.490;2023-03-12T09:11:32;96470;;;10.2;57.5
68628;BME280;55611;48.602;9.490;2023-03-12T09:14:02;96470;;;10.2;57.5
68628;BME280;55611;48.602;9.490;2023-03-12T09:16:33;96460;;;10.4;57.5
68628;BME280;55611;48.602;9.490;2023-03-12T09:19:04;96470;;;10.4;57.5
68628;BME280;55611;48.602;9.490;2023-03-12T09:21:34;96470;;;10.4;57.5
68628;BME280;55611;48.602;9.490;2023-03-12T09:24:05;96470;;;10.4;57.5
68628;BME280;55611;48.602;9.490;2023-03-12T09:26:35;96460;;;10.3;57.5
68628;BME280;55611;48.602;9.490;2023-03-12T09:29:06;96480;;;10.3;57.5
68628;BME280;55611;48.602;9.490;2023-03-12T09:31:36;96470;;;10.3;57.5
68628;BME280;55611;48.602;9.490;2023-03-12T09:34:07;96470;;;10.3;57.5
68628;BME280;55611;48.602;9.490;2023-03-12T09:36:37;96480;;;10.2;57.5
68628;BME280;55611;48.602;9.490;2023-03-12T09:39:08;96490;;;10.2;57.5
68628;BME280;55611;48.602;9.490;2023-03-12T09:41:38;96500;;;10.3;57.5
68628;BME280;55611;48.602;9.490;2023-03-12T09:44:28;96480;;;10.4;57.5
68628;BME280;55611;48.602;9.490;2023-03-12T09:46:47;96490;;;10.5;57.5
68628;BME280;55611;48.602;9.490;2023-03-12T09:49:12;96490;;;10.6;57.5
68628;BME280;55611;48.602;9.490;2023-03-12T09:51:42;96490;;;10.7;57.5
68628;BME280;55611;48.602;9.490;2023-03-12T09:54:15;96480;;;10.9;57.5
68628;BME280;55611;48.602;9.490;2023-03-12T09:56:41;96500;;;11;57.5
68628;BME280;55611;48.602;9.490;2023-03-12T09:59:12;96490;;;11;57.5
68628;BME280;55611;48.602;9.490;2023-03-12T10:01:45;96500;;;11.2;57.5
68628;BME280;55611;48.602;9.490;2023-03-12T10:05:17;96490;;;11.3;57.5
68628;BME280;55611;48.602;9.490;2023-03-12T10:06:47;96500;;;11.3;58
68628;BME280;55611;48.602;9.490;2023-03-12T10:09:25;96500;;;11.3;57.5
68628;BME280;55611;48.602;9.490;2023-03-12T10:12:19;96480;;;11.3;57.5
68628;BME280;55611;48.602;9.490;2023-03-12T10:14:17;96500;;;11.3;57.5
68628;BME280;55611;48.602;9.490;2023-03-12T10:16:48;96500;;;11.4;57.5
68628;BME280;55611;48.602;9.490;2023-03-12T10:19:22;96510;;;11.6;57.5
68628;BME280;55611;48.602;9.490;2023-03-12T10:21:49;96510;;;11.6;57.5
68628;BME280;55611;48.602;9.490;2023-03-12T10:24:35;96500;;;11.7;58
68628;BME280;55611;48.602;9.490;2023-03-12T10:26:49;96500;;;11.8;58
68628;BME280;55611;48.602;9.490;2023-03-12T10:29:20;96510;;;12;58
68628;BME280;55611;48.602;9.490;2023-03-12T10:31:51;96490;;;11.9;58
68628;BME280;55611;48.602;9.490;2023-03-12T10:34:20;96500;;;12.1;58
68628;BME280;55611;48.602;9.490;2023-03-12T10:36:49;96490;;;12.1;58
68628;BME280;55611;48.602;9.490;2023-03-12T10:39:20;96520;;;12.3;57.5
68628;BME280;55611;48.602;9.490;2023-03-12T10:41:50;96500;;;12.2;57.5
68628;BME280;55611;48.602;9.490;2023-03-12T10:44:22;96510;;;12.2;57.5
68628;BME280;55611;48.602;9.490;2023-03-12T10:47:56;96520;;;12.3;57.5
68628;BME280;55611;48.602;9.490;2023-03-12T10:52:01;96520;;;12.5;57.5
68628;BME280;55611;48.602;9.490;2023-03-12T10:54:28;96520;;;12.5;58
68628;BME280;55611;48.602;9.490;2023-03-12T10:56:54;96520;;;12.5;58
68628;BME280;55611;48.602;9.490;2023-03-12T10:59:26;96530;;;12.5;57.5
68628;BME280;55611;48.602;9.490;2023-03-12T11:01:55;96530;;;12.5;57.5
68628;BME280;55611;48.602;9.490;2023-03-12T11:04:27;96540;;;12.6;57.5
68628;BME280;55611;48.602;9.490;2023-03-12T11:07:17;96530;;;12.7;57.5
68628;BME280;55611;48.602;9.490;2023-03-12T11:09:26;96530;;;12.8;58
68628;BME280;55611;48.602;9.490;2023-03-12T11:11:57;96530;;;12.9;58
68628;BME280;55611;48.602;9.490;2023-03-12T11:14:28;96540;;;13.1;58
68628;BME280;55611;48.602;9.490;2023-03-12T11:16:58;96540;;;13.2;58
68628;BME280;55611;48.602;9.490;2023-03-12T11:19:29;96540;;;13.2;57.5
68628;BME280;55611;48.602;9.490;2023-03-12T11:22:00;96540;;;13.3;57.5
68628;BME280;55611;48.602;9.490;2023-03-12T11:24:29;96540;;;13.2;57.5
68628;BME280;55611;48.602;9.490;2023-03-12T11:27:04;96550;;;13.2;57.5
68628;BME280;55611;48.602;9.490;2023-03-12T11:29:31;96550;;;13.2;57.5
68628;BME280;55611;48.602;9.490;2023-03-12T11:32:33;96540;;;13.1;57.5
68628;BME280;55611;48.602;9.490;2023-03-12T11:34:33;96550;;;13.2;57.5
68628;BME280;55611;48.602;9.490;2023-03-12T11:37:04;96540;;;13.2;57.5
68628;BME280;55611;48.602;9.490;2023-03-12T11:39:37;96540;;;13.4;57.5
68628;BME280;55611;48.602;9.490;2023-03-12T11:42:10;96540;;;13.4;57.5
68628;BME280;55611;48.602;9.490;2023-03-12T11:44:37;96540;;;13.5;57.5
68628;BME280;55611;48.602;9.490;2023-03-12T11:47:10;96550;;;13.7;57.5
68628;BME280;55611;48.602;9.490;2023-03-12T11:49:39;96540;;;13.5;57.5
68628;BME280;55611;48.602;9.490;2023-03-12T11:52:23;96540;;;13.4;57.5
68628;BME280;55611;48.602;9.490;2023-03-12T11:54:39;96540;;;13.4;57.5
68628;BME280;55611;48.602;9.490;2023-03-12T11:57:13;96540;;;13.3;57.5
68628;BME280;55611;48.602;9.490;2023-03-12T12:02:12;96520;;;13.2;57.5
68628;BME280;55611;48.602;9.490;2023-03-12T12:04:49;96540;;;13.3;57.5
68628;BME280;55611;48.602;9.490;2023-03-12T12:07:12;96540;;;13.3;57.5
68628;BME280;55611;48.602;9.490;2023-03-12T12:09:44;96540;;;13.3;57.5
68628;BME280;55611;48.602;9.490;2023-03-12T12:12:12;96530;;;13.4;57.5
68628;BME280;55611;48.602;9.490;2023-03-12T12:14:44;96530;;;13.5;57.5
68628;BME280;55611;48.602;9.490;2023-03-12T12:17:14;96520;;;13.6;57.5
68628;BME280;55611;48.602;9.490;2023-03-12T12:19:43;96540;;;13.7;57.5
68628;BME280;55611;48.602;9.490;2023-03-12T12:23:15;96520;;;13.9;57.5
68628;BME280;55611;48.602;9.490;2023-03-12T12:24:48;96520;;;14;57.5
68628;BME280;55611;48.602;9.490;2023-03-12T12:27:14;96520;;;14.4;57.5
68628;BME280;55611;48.602;9.490;2023-03-12T12:29:49;96520;;;14.5;57.5
68628;BME280;55611;48.602;9.490;2023-03-12T12:32:16;96520;;;14.4;57.5
68628;BME280;55611;48.602;9.490;2023-03-12T12:35:47;96510;;;14.4;57.5
68628;BME280;55611;48.602;9.490;2023-03-12T12:37:17;96500;;;14.2;57.5
68628;BME280;55611;48.602;9.490;2023-03-12T12:39:47;96510;;;14.2;57.5
68628;BME280;55611;48.602;9.490;2023-03-12T12:42:17;96520;;;14.3;57.5
68628;BME280;55611;48.602;9.490;2023-03-12T12:44:48;96520;;;14.2;57.5
68628;BME280;55611;48.602;9.490;2023-03-12T12:47:19;96510;;;14.4;57.5
68628;BME280;55611;48.602;9.490;2023-03-12T12:49:48;96510;;;14.4;57.5
68628;BME280;55611;48.602;9.490;2023-03-12T12:52:19;96500;;;14.3;57.5
68628;BME280;55611;48.602;9.490;2023-03-12T12:54:57;96500;;;14.5;57.5
68628;BME280;55611;48.602;9.490;2023-03-12T12:57:22;96500;;;14.6;57.5
68628;BME280;55611;48.602;9.490;2023-03-12T13:00:23;96510;;;14.7;57.5
68628;BME280;55611;48.602;9.490;2023-03-12T13:02:20;96500;;;14.8;57.5
68628;BME280;55611;48.602;9.490;2023-03-12T13:04:50;96490;;;14.6;57.5
68628;BME280;55611;48.602;9.490;2023-03-12T13:07:28;96500;;;14.5;57.5
68628;BME280;55611;48.602;9.490;2023-03-12T13:09:52;96490;;;14.4;57.5
68628;BME280;55611;48.602;9.490;2023-03-12T13:12:27;96500;;;14.6;57.5
68628;BME280;55611;48.602;9.490;2023-03-12T13:14:52;96490;;;14.7;57
68628;BME280;55611;48.602;9.490;2023-03-12T13:17:25;96500;;;14.8;57
68628;BME280;55611;48.602;9.490;2023-03-12T13:19:57;96500;;;14.8;57
68628;BME280;55611;48.602;9.490;2023-03-12T13:22:42;96490;;;14.8;57
68628;BME280;55611;48.602;9.490;2023-03-12T13:24:56;96500;;;14.6;57
68628;BME280;55611;48.602;9.490;2023-03-12T13:27:29;96500;;;14.5;57
68628;BME280;55611;48.602;9.490;2023-03-12T13:29:55;96510;;;14.3;57
68628;BME280;55611;48.602;9.490;2023-03-12T13:32:36;96500;;;14.2;57
68628;BME280;55611;48.602;9.490;2023-03-12T13:34:56;96500;;;14.3;57
68628;BME280;55611;48.602;9.490;2023-03-12T13:37:29;96500;;;14.2;57
68628;BME280;55611;48.602;9.490;2023-03-12T13:39:58;96500;;;14.2;57
68628;BME280;55611;48.602;9.490;2023-03-12T13:42:35;96500;;;14.3;57
68628;BME280;55611;48.602;9.490;2023-03-12T13:45:10;96510;;;14.3;57
68628;BME280;55611;48.602;9.490;2023-03-12T13:47:29;96500;;;14.3;57
68628;BME280;55611;48.602;9.490;2023-03-12T13:50:00;96510;;;14.4;57
68628;BME280;55611;48.602;9.490;2023-03-12T13:52:31;96510;;;14.5;57
68628;BME280;55611;48.602;9.490;2023-03-12T13:55:01;96520;;;14.5;57
68628;BME280;55611;48.602;9.490;2023-03-12T14:00:03;96510;;;14.4;57
68628;BME280;55611;48.602;9.490;2023-03-12T14:05:04;96510;;;14.4;57
68628;BME280;55611;48.602;9.490;2023-03-12T14:07:38;96510;;;14.4;57
68628;BME280;55611;48.602;9.490;2023-03-12T14:12:52;96500;;;14.3;57
68628;BME280;55611;48.602;9.490;2023-03-12T14:15:10;96510;;;14.3;57
68628;BME280;55611;48.602;9.490;2023-03-12T14:17:35;96510;;;14.3;57
68628;BME280;55611;48.602;9.490;2023-03-12T14:20:20;96510;;;14.3;57
68628;BME280;55611;48.602;9.490;2023-03-12T14:22:37;96510;;;14.3;57
68628;BME280;55611;48.602;9.490;2023-03-12T14:25:25;96520;;;14.3;57
68628;BME280;55611;48.602;9.490;2023-03-12T14:27:37;96520;;;14.4;57
68628;BME280;55611;48.602;9.490;2023-03-12T14:30:15;96520;;;14.4;57
68628;BME280;55611;48.602;9.490;2023-03-12T14:32:38;96520;;;14.5;57
68628;BME280;55611;48.602;9.490;2023-03-12T14:35:17;96520;;;14.5;57
68628;BME280;55611;48.602;9.490;2023-03-12T14:37:41;96520;;;14.4;57
68628;BME280;55611;48.602;9.490;2023-03-12T14:40:29;96520;;;14.4;57
68628;BME280;55611;48.602;9.490;2023-03-12T14:42:40;96520;;;14.5;57
68628;BME280;55611;48.602;9.490;2023-03-12T14:45:12;96530;;;14.5;57
68628;BME280;55611;48.602;9.490;2023-03-12T14:47:42;96530;;;14.6;57
68628;BME280;55611;48.602;9.490;2023-03-12T14:50:20;96510;;;14.7;57
68628;BME280;55611;48.602;9.490;2023-03-12T14:52:42;96520;;;14.7;57
68628;BME280;55611;48.602;9.490;2023-03-12T14:55:14;96520;;;14.7;57
68628;BME280;55611;48.602;9.490;2023-03-12T14:57:43;96530;;;14.6;57
68628;BME280;55611;48.602;9.490;2023-03-12T15:00:21;96520;;;14.6;57
68628;BME280;55611;48.602;9.490;2023-03-12T15:02:44;96520;;;14.5;57